Airport View

Enter AWOS ICAO identifier for current METAR.

ex. KFNL

KDGW 290453Z AUTO 32007KT 10SM CLR 06/M07 A3028 RMK AO2 SLP241 T00561067

29 Sep 2020 05:14

Frequency: 135.225

Phone: 307-358-4448

Other Area AWOS: KLSK - KGUR - KCPR - KEAN

TAF AMD KCPR 290010Z 2900/2924 30012G20KT P6SM SKC FM290100 25006KT P6SM SKC FM291300 24010G22KT P6SM SKC FM292200 32010G15KT P6SM SKC